Time;durP1;ratioP1;P1;durP2;ratioP2;P2;SDS_P1;SDS_P2;PMS_P1;PMS_P2;Temp;Humidity;BMP_temperature;BMP_pressure;BME280_temperature;BME280_humidity;BME280_pressure;Samples;Min_cycle;Max_cycle;Signal;HPM_P1;HPM_P2
2021/12/29 00:02:00;;;;;;;26.55;7.47;;;6.80;99.90;;;;;;5020817;28;20042;-68
2021/12/29 00:04:27;;;;;;;32.80;8.83;;;6.80;99.90;;;;;;5012169;28;20063;-68
2021/12/29 00:06:56;;;;;;;28.33;7.78;;;6.80;99.90;;;;;;5021048;28;20418;-68
2021/12/29 00:09:22;;;;;;;27.63;7.57;;;6.80;99.90;;;;;;5025921;28;20029;-68
2021/12/29 00:11:48;;;;;;;30.45;8.25;;;6.80;99.90;;;;;;5012100;28;20159;-68
2021/12/29 00:14:14;;;;;;;24.00;7.70;;;6.90;99.90;;;;;;5022673;28;20113;-68
2021/12/29 00:16:40;;;;;;;30.50;8.68;;;6.90;99.90;;;;;;5029119;28;20052;-68
2021/12/29 00:19:06;;;;;;;33.83;8.47;;;7.00;99.90;;;;;;4999123;28;20084;-68
2021/12/29 00:21:33;;;;;;;31.42;9.32;;;7.00;99.90;;;;;;5003969;28;20167;-67
2021/12/29 00:24:04;;;;;;;33.67;9.35;;;7.00;99.90;;;;;;5025828;28;20537;-68
2021/12/29 00:26:31;;;;;;;32.08;8.95;;;7.10;99.90;;;;;;5025487;28;20124;-68
2021/12/29 00:29:01;;;;;;;31.10;10.30;;;7.10;99.90;;;;;;5012732;28;20053;-68
2021/12/29 00:31:28;;;;;;;34.10;9.93;;;7.20;99.90;;;;;;5011933;28;20517;-68
2021/12/29 00:33:54;;;;;;;38.75;9.60;;;7.20;99.90;;;;;;5003403;28;20042;-68
2021/12/29 00:36:20;;;;;;;33.30;9.83;;;7.20;99.90;;;;;;5018628;28;20048;-68
2021/12/29 00:38:46;;;;;;;35.85;10.82;;;7.20;99.90;;;;;;5019303;28;20371;-68
2021/12/29 00:41:12;;;;;;;43.33;11.40;;;7.30;99.90;;;;;;5020084;28;20045;-68
2021/12/29 00:43:38;;;;;;;;;;;7.30;99.90;;;;;;5022782;28;20166;-68
2021/12/29 00:46:04;;;;;;;32.60;10.93;;;7.30;99.90;;;;;;5014937;28;20270;-67
2021/12/29 00:48:36;;;;;;;33.05;11.73;;;7.30;99.90;;;;;;5007307;28;20449;-68
2021/12/29 00:51:03;;;;;;;33.40;11.38;;;7.20;99.90;;;;;;5023992;28;20038;-74
2021/12/29 00:53:31;;;;;;;47.53;11.57;;;7.20;99.90;;;;;;5012051;28;20037;-67
2021/12/29 00:55:57;;;;;;;49.80;12.30;;;7.20;99.90;;;;;;5022372;28;20041;-67
2021/12/29 00:58:23;;;;;;;49.00;12.13;;;7.20;99.90;;;;;;5020847;28;20037;-67
2021/12/29 01:00:49;;;;;;;52.57;11.80;;;7.20;99.90;;;;;;4999542;28;20037;-67
2021/12/29 01:03:15;;;;;;;56.58;12.30;;;7.20;99.90;;;;;;5024353;28;20033;-67
2021/12/29 01:05:40;;;;;;;62.85;11.85;;;7.20;99.90;;;;;;5027002;28;20099;-67
2021/12/29 01:08:06;;;;;;;43.50;10.90;;;7.20;99.90;;;;;;5005411;28;20081;-66
2021/12/29 01:10:34;;;;;;;63.65;11.48;;;7.20;99.90;;;;;;5013269;28;20048;-67
2021/12/29 01:13:02;;;;;;;62.10;11.80;;;7.20;99.90;;;;;;4995242;28;20034;-67
2021/12/29 01:15:33;;;;;;;63.38;10.15;;;7.10;99.90;;;;;;5016602;28;20043;-67
2021/12/29 01:18:01;;;;;;;63.70;11.10;;;7.10;99.90;;;;;;5013726;28;20393;-67
2021/12/29 01:20:28;;;;;;;75.60;11.57;;;7.10;99.90;;;;;;5019140;28;20516;-67
2021/12/29 01:22:54;;;;;;;101.20;12.40;;;7.10;99.90;;;;;;5011250;28;20136;-67
2021/12/29 01:25:21;;;;;;;84.00;10.73;;;7.10;99.90;;;;;;5017885;28;20125;-67
2021/12/29 01:27:47;;;;;;;74.93;9.13;;;7.10;99.90;;;;;;5001165;28;20292;-67
2021/12/29 01:30:13;;;;;;;59.13;8.50;;;7.10;99.90;;;;;;5008259;28;20114;-67
2021/12/29 01:32:41;;;;;;;66.70;8.07;;;7.10;99.90;;;;;;5022099;28;20068;-67
2021/12/29 01:35:09;;;;;;;62.33;7.82;;;7.10;99.90;;;;;;4989549;28;20327;-67
2021/12/29 01:37:35;;;;;;;54.13;8.70;;;7.00;99.90;;;;;;5026852;28;20386;-67
2021/12/29 01:40:04;;;;;;;68.38;9.18;;;7.10;99.90;;;;;;5004135;28;20045;-67
2021/12/29 01:42:29;;;;;;;81.20;8.70;;;7.10;99.90;;;;;;5009457;28;20057;-67
2021/12/29 01:44:55;;;;;;;62.17;8.90;;;7.10;99.90;;;;;;5002496;28;20049;-67
2021/12/29 01:47:26;;;;;;;54.57;7.60;;;7.10;99.90;;;;;;5024780;28;20132;-67
2021/12/29 01:49:52;;;;;;;52.58;8.10;;;7.10;99.90;;;;;;5022362;28;20034;-67
2021/12/29 01:52:22;;;;;;;62.20;8.50;;;7.10;99.90;;;;;;5024078;28;20045;-67
2021/12/29 01:54:48;;;;;;;29.90;7.00;;;7.10;99.90;;;;;;5009333;28;20071;-68
2021/12/29 01:57:13;;;;;;;38.73;7.17;;;7.10;99.90;;;;;;5005335;28;20041;-67
2021/12/29 01:59:40;;;;;;;42.63;7.27;;;7.20;99.90;;;;;;5023557;28;20052;-67
2021/12/29 02:02:06;;;;;;;35.83;7.63;;;7.20;99.90;;;;;;5005907;28;20045;-67
2021/12/29 02:04:36;;;;;;;44.80;7.80;;;7.20;99.90;;;;;;5025657;28;20038;-67
2021/12/29 02:07:04;;;;;;;33.83;7.85;;;7.20;99.90;;;;;;5007027;28;20071;-67
2021/12/29 02:09:30;;;;;;;28.73;7.63;;;7.20;99.90;;;;;;5026182;28;20037;-67
2021/12/29 02:11:55;;;;;;;34.03;8.50;;;7.20;99.90;;;;;;5025511;28;20159;-67
2021/12/29 02:14:21;;;;;;;40.30;8.77;;;7.30;99.90;;;;;;5020547;28;20041;-67
2021/12/29 02:16:47;;;;;;;33.77;9.30;;;7.30;99.90;;;;;;5003814;28;20048;-66
2021/12/29 02:19:13;;;;;;;36.50;8.87;;;7.30;99.90;;;;;;5005562;28;20425;-67
2021/12/29 02:21:43;;;;;;;38.45;9.13;;;7.40;99.90;;;;;;5007445;28;20335;-66
2021/12/29 02:26:39;;;;;;;38.58;9.65;;;7.50;99.90;;;;;;5026666;28;20114;-67
2021/12/29 02:29:08;;;;;;;31.67;9.65;;;7.50;99.90;;;;;;4995619;28;20536;-70
2021/12/29 02:31:36;;;;;;;25.55;9.52;;;7.50;99.90;;;;;;5012028;28;20045;-69
2021/12/29 02:34:02;;;;;;;29.95;10.38;;;7.60;99.90;;;;;;5003938;28;20041;-66
2021/12/29 02:36:28;;;;;;;24.02;10.27;;;7.60;99.90;;;;;;4996096;28;20036;-66
2021/12/29 02:38:55;;;;;;;25.13;10.80;;;7.60;99.90;;;;;;5027020;28;20053;-66
2021/12/29 02:41:23;;;;;;;30.00;10.25;;;7.60;99.90;;;;;;5023036;28;20056;-66
2021/12/29 02:43:57;;;;;;;28.40;10.57;;;7.60;99.90;;;;;;5025007;28;20056;-67
2021/12/29 02:46:23;;;;;;;22.50;10.38;;;7.60;99.90;;;;;;5006178;28;20053;-68
2021/12/29 02:48:55;;;;;;;30.13;10.75;;;7.60;99.90;;;;;;5008167;28;20033;-67
2021/12/29 02:51:21;;;;;;;23.75;10.80;;;7.60;99.90;;;;;;5024006;28;20061;-67
2021/12/29 02:53:47;;;;;;;24.25;10.63;;;7.60;99.90;;;;;;5025510;28;20057;-68
2021/12/29 02:56:13;;;;;;;32.40;9.90;;;7.60;99.90;;;;;;5012273;28;20462;-68
2021/12/29 02:58:39;;;;;;;24.30;11.10;;;7.60;99.90;;;;;;5010529;28;20467;-68
2021/12/29 03:01:10;;;;;;;26.20;10.30;;;7.60;99.90;;;;;;5011722;28;20037;-68
2021/12/29 03:03:38;;;;;;;23.92;10.35;;;7.60;99.90;;;;;;5026065;28;20041;-69
2021/12/29 03:06:05;;;;;;;25.70;10.48;;;7.60;99.90;;;;;;5022862;28;20116;-68
2021/12/29 03:08:31;;;;;;;20.95;9.93;;;7.70;99.90;;;;;;5027939;28;20088;-69
2021/12/29 03:10:57;;;;;;;23.07;10.23;;;7.70;99.90;;;;;;5009746;28;20046;-69
2021/12/29 03:13:25;;;;;;;26.85;11.05;;;7.70;99.90;;;;;;5024420;28;20048;-68
2021/12/29 03:15:51;;;;;;;24.90;10.15;;;7.70;99.90;;;;;;5007765;28;20444;-66
2021/12/29 03:18:17;;;;;;;21.65;10.05;;;7.60;99.90;;;;;;4994247;28;20121;-67
2021/12/29 03:20:44;;;;;;;27.55;10.23;;;7.70;99.90;;;;;;5021903;28;20462;-66
2021/12/29 03:23:10;;;;;;;;;;;7.70;99.90;;;;;;5027447;28;20420;-66
2021/12/29 03:25:35;;;;;;;21.38;9.23;;;7.70;99.90;;;;;;5011164;28;19921;-66
2021/12/29 03:28:02;;;;;;;25.57;10.00;;;7.60;99.90;;;;;;5033781;28;20069;-68
2021/12/29 03:33:03;;;;;;;22.88;9.82;;;7.70;99.90;;;;;;5066404;22;20140;-83
2021/12/29 03:35:40;;;;;;;23.50;10.18;;;7.70;99.90;;;;;;5033228;28;20080;-85
2021/12/29 03:38:14;;;;;;;21.45;9.57;;;7.70;99.90;;;;;;5037266;28;20033;-84
2021/12/29 03:40:43;;;;;;;20.05;9.65;;;7.70;99.90;;;;;;5016527;28;20106;-84
2021/12/29 03:43:11;;;;;;;16.77;8.38;;;7.70;99.90;;;;;;5019521;28;20048;-83
2021/12/29 03:45:38;;;;;;;26.08;10.18;;;7.70;99.90;;;;;;5006294;28;20055;-84
2021/12/29 03:48:09;;;;;;;21.15;9.50;;;7.70;99.90;;;;;;5001894;28;20037;-84
2021/12/29 03:50:35;;;;;;;20.33;9.85;;;7.70;99.90;;;;;;5004175;28;20089;-84
2021/12/29 03:53:02;;;;;;;20.48;9.20;;;7.80;99.90;;;;;;5004260;28;20045;-84
2021/12/29 03:55:30;;;;;;;23.98;10.13;;;7.70;99.90;;;;;;5001704;28;20049;-84
2021/12/29 03:57:56;;;;;;;23.67;9.85;;;7.70;99.90;;;;;;5005417;28;20045;-85
2021/12/29 04:00:23;;;;;;;24.63;10.38;;;7.70;99.90;;;;;;5008868;28;20033;-84
2021/12/29 04:02:49;;;;;;;19.88;9.50;;;7.70;99.90;;;;;;5002709;28;20049;-84
2021/12/29 04:05:18;;;;;;;22.70;10.57;;;7.70;99.90;;;;;;5020593;28;20033;-83
2021/12/29 04:07:43;;;;;;;25.60;10.70;;;7.70;99.90;;;;;;5016022;28;20451;-83
2021/12/29 04:10:10;;;;;;;24.63;9.77;;;7.60;99.90;;;;;;5002500;28;20064;-83
2021/12/29 04:12:41;;;;;;;25.67;8.63;;;7.70;99.90;;;;;;5017998;28;20034;-85
2021/12/29 04:15:09;;;;;;;16.52;7.80;;;7.60;99.90;;;;;;5008210;28;20049;-84
2021/12/29 04:17:38;;;;;;;15.38;7.25;;;7.60;99.90;;;;;;5001321;28;20098;-84
2021/12/29 04:22:57;;;;;;;22.02;7.47;;;7.60;99.90;;;;;;5015767;28;20411;-82
2021/12/29 04:25:24;;;;;;;25.13;8.03;;;7.70;99.90;;;;;;5003012;28;20045;-83
2021/12/29 04:27:55;;;;;;;30.83;7.97;;;7.60;99.90;;;;;;5001704;28;20303;-83
2021/12/29 04:30:23;;;;;;;16.20;7.75;;;7.60;99.90;;;;;;5001433;28;20447;-84
2021/12/29 04:32:50;;;;;;;17.48;7.70;;;7.60;99.90;;;;;;4998786;28;20183;-83
2021/12/29 04:35:15;;;;;;;17.30;7.32;;;7.60;99.90;;;;;;4999708;28;20504;-83
2021/12/29 04:37:41;;;;;;;20.63;7.30;;;7.60;99.90;;;;;;5013201;28;20067;-83
2021/12/29 04:40:08;;;;;;;21.50;7.33;;;7.60;99.90;;;;;;4998236;28;20128;-84
2021/12/29 04:42:33;;;;;;;22.10;7.80;;;7.60;99.90;;;;;;5015048;28;20045;-83
2021/12/29 04:44:59;;;;;;;25.33;8.87;;;7.60;99.90;;;;;;5004761;28;20095;-83
2021/12/29 04:47:29;;;;;;;23.00;8.47;;;7.70;99.90;;;;;;5003322;28;20287;-82
2021/12/29 04:50:01;;;;;;;21.30;8.38;;;7.70;99.90;;;;;;5001346;28;20037;-83
2021/12/29 04:52:29;;;;;;;27.10;7.65;;;7.70;99.90;;;;;;5001061;28;20043;-84
2021/12/29 04:54:54;;;;;;;19.65;8.05;;;7.70;99.90;;;;;;5001531;28;20226;-84
2021/12/29 04:57:21;;;;;;;18.20;8.10;;;7.70;99.90;;;;;;5003188;28;20086;-83
2021/12/29 04:59:46;;;;;;;34.38;9.63;;;7.70;99.90;;;;;;4996230;28;20132;-83
2021/12/29 05:02:12;;;;;;;24.90;9.85;;;7.70;99.90;;;;;;5015781;28;20077;-83
2021/12/29 05:04:46;;;;;;;26.67;8.10;;;7.70;99.90;;;;;;4999096;28;20029;-83
2021/12/29 05:09:59;;;;;;;29.30;9.02;;;7.70;99.90;;;;;;5022110;28;20041;-83
2021/12/29 05:12:25;;;;;;;28.27;8.10;;;7.70;99.90;;;;;;5005448;28;20410;-83
2021/12/29 05:14:51;;;;;;;36.97;9.43;;;7.70;99.90;;;;;;4993604;28;20037;-83
2021/12/29 05:17:17;;;;;;;27.40;8.87;;;7.70;99.90;;;;;;5003729;28;20037;-83
2021/12/29 05:19:42;;;;;;;27.53;8.93;;;7.70;99.90;;;;;;5000131;28;20471;-83
2021/12/29 05:22:08;;;;;;;33.23;8.77;;;7.70;99.90;;;;;;4998416;28;20462;-83
2021/12/29 05:24:36;;;;;;;23.17;8.40;;;7.70;99.90;;;;;;5000224;28;20037;-83
2021/12/29 05:27:02;;;;;;;26.77;8.45;;;7.70;99.90;;;;;;4994936;28;20061;-84
2021/12/29 05:29:28;;;;;;;26.53;7.60;;;7.70;99.90;;;;;;5017593;28;20037;-84
2021/12/29 05:31:56;;;;;;;24.53;9.27;;;7.80;99.90;;;;;;5001198;28;20033;-83
2021/12/29 05:34:21;;;;;;;27.20;8.02;;;7.70;99.90;;;;;;4995135;28;20029;-82
2021/12/29 05:36:47;;;;;;;28.23;8.57;;;7.70;99.90;;;;;;5000844;28;20543;-82
2021/12/29 05:39:13;;;;;;;24.13;8.60;;;7.70;99.90;;;;;;5000267;28;20090;-84
2021/12/29 05:41:39;;;;;;;29.52;9.13;;;7.80;99.90;;;;;;5009667;28;20388;-82
2021/12/29 05:44:08;;;;;;;19.67;8.23;;;7.70;99.90;;;;;;4999643;28;20040;-83
2021/12/29 05:46:33;;;;;;;22.05;9.45;;;7.70;99.90;;;;;;5014852;28;20130;-83
2021/12/29 05:48:59;;;;;;;26.57;9.13;;;7.70;99.90;;;;;;5000065;28;20090;-83
2021/12/29 05:51:25;;;;;;;28.17;9.37;;;7.70;99.90;;;;;;5004514;28;20049;-82
2021/12/29 05:53:50;;;;;;;34.10;9.23;;;7.70;99.90;;;;;;5000592;28;20069;-84
2021/12/29 05:56:16;;;;;;;32.10;9.47;;;7.70;99.90;;;;;;5005694;28;20033;-84
2021/12/29 05:58:42;;;;;;;33.47;9.27;;;7.70;99.90;;;;;;5002508;28;20100;-81
2021/12/29 06:01:09;;;;;;;34.13;9.67;;;7.70;99.90;;;;;;5005348;28;20495;-84
2021/12/29 06:03:36;;;;;;;32.03;9.38;;;7.70;99.90;;;;;;5003875;28;20036;-83
2021/12/29 06:06:02;;;;;;;;;;;7.80;99.90;;;;;;5003061;28;20291;-83
2021/12/29 06:08:28;;;;;;;27.85;9.20;;;7.70;99.90;;;;;;5017667;28;20163;-83
2021/12/29 06:10:53;;;;;;;32.43;9.27;;;7.70;99.90;;;;;;5003837;28;20780;-84
2021/12/29 06:13:22;;;;;;;29.83;10.03;;;7.70;99.90;;;;;;5003895;28;20407;-84
2021/12/29 06:15:47;;;;;;;35.40;9.40;;;7.60;99.90;;;;;;5000802;28;20045;-83
2021/12/29 06:18:13;;;;;;;32.97;9.33;;;7.70;99.90;;;;;;5003072;28;20048;-84
2021/12/29 06:20:39;;;;;;;32.13;9.70;;;7.60;99.90;;;;;;5002652;28;20038;-83
2021/12/29 06:23:06;;;;;;;39.10;10.20;;;7.60;99.90;;;;;;5002701;28;20119;-83
2021/12/29 06:25:33;;;;;;;31.52;9.77;;;7.60;99.90;;;;;;5004316;28;20121;-83
2021/12/29 06:27:58;;;;;;;32.50;12.15;;;7.60;99.90;;;;;;5007270;28;20055;-83
2021/12/29 06:30:24;;;;;;;32.17;10.40;;;7.60;99.90;;;;;;5003606;28;20033;-83
2021/12/29 06:32:50;;;;;;;35.50;9.27;;;7.60;99.90;;;;;;5007174;28;20050;-83
2021/12/29 06:35:16;;;;;;;24.67;9.17;;;7.60;99.90;;;;;;5005082;28;20033;-83
2021/12/29 06:37:43;;;;;;;35.30;9.10;;;7.60;99.90;;;;;;5000247;28;20033;-83
2021/12/29 06:40:10;;;;;;;35.92;10.90;;;7.60;99.90;;;;;;5005265;28;20307;-83
2021/12/29 06:42:36;;;;;;;25.65;8.77;;;7.60;99.90;;;;;;5002902;28;20635;-83
2021/12/29 06:45:02;;;;;;;26.23;8.93;;;7.60;99.90;;;;;;5018794;28;20060;-83
2021/12/29 06:47:28;;;;;;;;;;;7.60;99.90;;;;;;5007606;28;20095;-83
2021/12/29 06:49:54;;;;;;;27.10;10.23;;;7.60;99.90;;;;;;5002905;28;20410;-84
2021/12/29 06:52:20;;;;;;;29.83;8.68;;;7.60;99.90;;;;;;5005289;28;20041;-83
2021/12/29 06:54:46;;;;;;;35.28;10.05;;;7.60;99.90;;;;;;5005321;28;20410;-82
2021/12/29 06:57:13;;;;;;;35.30;10.80;;;7.60;99.90;;;;;;5005676;28;20029;-83
2021/12/29 06:59:39;;;;;;;40.00;9.23;;;7.60;99.90;;;;;;5005767;28;20045;-84
2021/12/29 07:02:05;;;;;;;27.42;8.43;;;7.60;99.90;;;;;;5020554;28;20157;-83
2021/12/29 07:04:31;;;;;;;25.87;8.50;;;7.60;99.90;;;;;;5002396;28;20037;-82
2021/12/29 07:06:57;;;;;;;30.40;9.73;;;7.60;99.90;;;;;;4999830;28;20300;-83
2021/12/29 07:09:24;;;;;;;28.85;8.40;;;7.60;99.90;;;;;;5002626;28;20316;-83
2021/12/29 07:11:50;;;;;;;37.97;9.55;;;7.60;99.90;;;;;;5001113;28;20480;-83
2021/12/29 07:14:16;;;;;;;35.95;8.68;;;7.60;99.90;;;;;;5000183;28;20469;-83
2021/12/29 07:16:44;;;;;;;26.13;7.75;;;7.60;99.90;;;;;;5001191;28;20037;-83
2021/12/29 07:19:10;;;;;;;39.00;9.48;;;7.60;99.90;;;;;;5005384;28;20041;-83
2021/12/29 07:21:36;;;;;;;38.07;9.97;;;7.70;99.90;;;;;;5002601;28;20581;-84
2021/12/29 07:24:04;;;;;;;36.60;9.87;;;7.70;99.90;;;;;;4996902;28;20048;-83
2021/12/29 07:26:30;;;;;;;48.47;10.00;;;7.60;99.90;;;;;;5000591;28;20523;-83
2021/12/29 07:28:59;;;;;;;46.50;10.50;;;7.70;99.90;;;;;;5025572;28;20117;-84
2021/12/29 07:31:27;;;;;;;49.33;10.20;;;7.70;99.90;;;;;;5002673;28;20045;-84
2021/12/29 07:33:53;;;;;;;61.60;10.60;;;7.60;99.90;;;;;;5006746;28;20042;-84
2021/12/29 07:36:19;;;;;;;46.20;9.25;;;7.60;99.90;;;;;;5001353;28;20067;-84
2021/12/29 07:38:45;;;;;;;40.97;7.87;;;7.70;99.90;;;;;;4999616;28;20049;-83
2021/12/29 07:41:11;;;;;;;52.30;7.28;;;7.70;99.90;;;;;;5003936;28;20037;-83
2021/12/29 07:43:37;;;;;;;44.20;7.03;;;7.60;99.90;;;;;;5002615;28;20164;-82
2021/12/29 07:46:04;;;;;;;26.08;6.05;;;7.70;99.90;;;;;;5005302;28;20052;-84
2021/12/29 07:48:31;;;;;;;40.20;6.80;;;7.70;99.90;;;;;;5003608;28;20037;-83
2021/12/29 07:50:57;;;;;;;40.47;7.50;;;7.60;99.90;;;;;;5004909;28;20402;-85
2021/12/29 07:53:23;;;;;;;;;;;7.70;99.90;;;;;;5005202;28;20068;-83
2021/12/29 07:55:49;;;;;;;34.15;6.97;;;7.70;99.90;;;;;;5001664;28;20391;-83
2021/12/29 07:58:15;;;;;;;24.80;6.37;;;7.70;99.90;;;;;;5003163;28;20160;-83
2021/12/29 08:00:42;;;;;;;42.60;7.72;;;7.70;99.90;;;;;;5007813;28;20407;-82
2021/12/29 08:03:10;;;;;;;59.33;8.98;;;7.70;99.90;;;;;;5018776;28;20073;-83
2021/12/29 08:05:36;;;;;;;39.40;7.25;;;7.70;99.90;;;;;;5005369;28;20049;-83
2021/12/29 08:08:05;;;;;;;57.03;8.03;;;7.70;99.90;;;;;;5025095;28;20053;-83
2021/12/29 08:10:31;;;;;;;56.47;9.43;;;7.70;99.90;;;;;;5004258;28;20423;-83
2021/12/29 08:12:57;;;;;;;38.83;8.00;;;7.70;99.90;;;;;;5016065;28;20037;-83
2021/12/29 08:15:23;;;;;;;28.63;6.27;;;7.70;99.90;;;;;;4998074;28;20657;-83
2021/12/29 08:17:49;;;;;;;46.05;9.00;;;7.70;99.90;;;;;;4998644;28;20342;-83
2021/12/29 08:20:15;;;;;;;64.07;9.02;;;7.70;99.90;;;;;;5006395;28;20050;-83
2021/12/29 08:22:41;;;;;;;38.27;8.27;;;7.70;99.90;;;;;;5007280;28;20553;-84
2021/12/29 08:25:14;;;;;;;62.80;9.17;;;7.70;99.90;;;;;;5012402;28;20103;-84
2021/12/29 08:27:40;;;;;;;34.55;8.18;;;7.70;99.90;;;;;;4993086;28;20134;-84
2021/12/29 08:30:07;;;;;;;49.42;9.32;;;7.70;99.90;;;;;;5008293;28;20033;-83
2021/12/29 08:32:33;;;;;;;43.70;7.75;;;7.60;99.90;;;;;;5002694;28;20210;-84
2021/12/29 08:34:58;;;;;;;36.10;8.00;;;7.70;99.90;;;;;;5017971;28;20431;-83
2021/12/29 08:37:24;;;;;;;26.27;7.13;;;7.60;99.90;;;;;;4997466;28;20069;-84
2021/12/29 08:39:50;;;;;;;59.87;9.07;;;7.70;99.90;;;;;;5012279;28;20053;-84
2021/12/29 08:42:15;;;;;;;40.77;8.00;;;7.60;99.90;;;;;;5005277;28;20033;-84
2021/12/29 08:44:41;;;;;;;46.83;8.37;;;7.60;99.90;;;;;;4994777;28;20064;-83
2021/12/29 08:47:08;;;;;;;36.10;7.10;;;7.60;99.90;;;;;;5002034;28;20071;-83
2021/12/29 08:49:34;;;;;;;23.63;6.68;;;7.60;99.90;;;;;;4998954;28;20041;-83
2021/12/29 08:52:00;;;;;;;23.15;5.88;;;7.60;99.90;;;;;;5010484;28;20119;-83
2021/12/29 08:54:27;;;;;;;21.20;5.70;;;7.60;99.90;;;;;;5021216;28;20483;-83
2021/12/29 08:56:54;;;;;;;22.75;6.60;;;7.60;99.90;;;;;;5000741;28;20034;-83
2021/12/29 08:59:21;;;;;;;16.00;5.57;;;7.60;99.90;;;;;;5017282;28;20128;-84
2021/12/29 09:01:46;;;;;;;22.13;7.15;;;7.60;99.90;;;;;;5009592;28;20056;-83
2021/12/29 09:04:12;;;;;;;17.90;6.57;;;7.70;99.90;;;;;;5003222;28;20415;-83
2021/12/29 09:06:38;;;;;;;18.00;6.37;;;7.70;99.90;;;;;;5004508;28;20100;-84
2021/12/29 09:09:04;;;;;;;23.63;6.33;;;7.70;99.90;;;;;;5002401;28;20114;-84
2021/12/29 09:11:30;;;;;;;15.35;5.05;;;7.70;99.90;;;;;;5016437;28;20044;-85
2021/12/29 09:13:57;;;;;;;20.42;5.80;;;7.70;99.90;;;;;;5017332;28;20041;-85
2021/12/29 09:16:23;;;;;;;18.00;5.32;;;7.80;99.90;;;;;;4999723;28;20029;-83
2021/12/29 09:18:49;;;;;;;15.07;5.57;;;7.80;99.90;;;;;;5016976;28;20071;-82
2021/12/29 09:21:18;;;;;;;18.80;5.35;;;7.80;99.90;;;;;;5001913;28;20041;-82
2021/12/29 09:23:47;;;;;;;20.30;5.88;;;7.80;99.90;;;;;;5000908;28;20065;-83
2021/12/29 09:26:16;;;;;;;14.43;5.07;;;7.80;99.90;;;;;;5001788;28;20049;-83
2021/12/29 09:28:43;;;;;;;18.63;5.07;;;7.90;99.90;;;;;;5018503;28;20342;-84
2021/12/29 09:31:09;;;;;;;18.08;5.30;;;7.90;99.90;;;;;;5002505;28;20030;-83
2021/12/29 09:33:43;;;;;;;14.23;4.53;;;7.90;99.90;;;;;;5019929;23;20048;-84
2021/12/29 09:36:09;;;;;;;18.30;4.88;;;7.90;99.90;;;;;;5019595;28;20049;-85
2021/12/29 09:38:40;;;;;;;22.60;5.88;;;7.90;99.90;;;;;;5023193;28;20041;-85
2021/12/29 09:41:12;;;;;;;22.42;6.47;;;8.00;99.90;;;;;;5014439;28;20052;-85
2021/12/29 09:43:39;;;;;;;19.92;5.18;;;8.00;99.90;;;;;;5002467;28;20067;-85
2021/12/29 09:46:05;;;;;;;;;;;7.90;99.90;;;;;;5014361;28;20045;-86
2021/12/29 09:48:31;;;;;;;20.67;6.10;;;8.00;99.90;;;;;;4992048;28;20415;-87
2021/12/29 09:51:00;;;;;;;13.93;5.70;;;8.00;99.90;;;;;;4997810;28;20096;-85
2021/12/29 09:53:25;;;;;;;11.43;4.43;;;8.00;99.90;;;;;;4991322;28;20492;-85
2021/12/29 09:55:51;;;;;;;10.37;4.57;;;8.00;99.90;;;;;;5017109;28;20040;-87
2021/12/29 09:58:22;;;;;;;13.97;4.87;;;8.00;99.90;;;;;;5000365;28;20281;-85
2021/12/29 10:00:54;;;;;;;16.25;4.70;;;8.00;99.90;;;;;;4997872;28;20044;-87
2021/12/29 10:03:22;;;;;;;12.88;4.40;;;8.10;99.90;;;;;;4997584;28;20033;-86
2021/12/29 10:05:50;;;;;;;15.90;4.05;;;8.10;99.90;;;;;;4999297;28;20102;-90
2021/12/29 10:08:22;;;;;;;12.82;4.05;;;8.10;99.90;;;;;;4991674;28;20095;-87
2021/12/29 10:10:52;;;;;;;10.23;4.35;;;8.10;99.90;;;;;;5018204;28;20427;-87
2021/12/29 10:13:17;;;;;;;18.20;4.68;;;8.10;99.90;;;;;;4996527;28;20165;-86
2021/12/29 10:15:46;;;;;;;9.90;4.50;;;8.10;99.90;;;;;;5014179;28;20121;-86
2021/12/29 10:18:20;;;;;;;12.75;4.22;;;8.10;99.90;;;;;;4998112;28;20472;-85
2021/12/29 10:20:54;;;;;;;15.80;4.00;;;8.10;99.90;;;;;;5006074;28;20037;-85
2021/12/29 10:23:44;;;;;;;17.58;4.22;;;8.10;99.90;;;;;;5032667;28;20598;-85
2021/12/29 10:26:22;;;;;;;10.40;3.85;;;8.10;99.90;;;;;;4998211;28;20037;-85
2021/12/29 10:28:53;;;;;;;15.15;4.13;;;8.10;99.90;;;;;;5016549;28;20108;-85
2021/12/29 10:31:22;;;;;;;17.17;4.20;;;8.10;99.90;;;;;;5005820;28;20029;-85
2021/12/29 10:34:00;;;;;;;10.32;3.58;;;8.10;99.90;;;;;;4996440;28;20045;-87
2021/12/29 10:36:37;;;;;;;10.88;3.22;;;8.10;99.90;;;;;;5015165;28;20080;-86
2021/12/29 10:39:12;;;;;;;;;;;8.10;99.90;;;;;;4992833;28;20499;-85
2021/12/29 10:41:55;;;;;;;10.07;3.75;;;8.10;99.90;;;;;;5011296;28;19913;-85
2021/12/29 10:44:25;;;;;;;19.13;3.63;;;8.10;99.90;;;;;;5017097;28;20128;-85
2021/12/29 10:46:55;;;;;;;18.05;5.05;;;8.10;99.90;;;;;;5014232;28;20519;-86
2021/12/29 10:49:25;;;;;;;14.13;3.55;;;8.10;99.90;;;;;;5001856;28;20450;-86
2021/12/29 10:51:51;;;;;;;13.32;3.40;;;8.10;99.90;;;;;;4995946;28;20041;-84
2021/12/29 10:54:20;;;;;;;20.17;4.50;;;8.10;99.90;;;;;;5011614;28;20045;-85
2021/12/29 10:56:59;;;;;;;12.27;4.00;;;8.10;99.90;;;;;;4999969;28;20102;-85
2021/12/29 10:59:31;;;;;;;14.45;3.35;;;8.10;99.90;;;;;;5000153;28;20552;-86
2021/12/29 11:01:57;;;;;;;16.10;4.43;;;8.20;99.90;;;;;;4999041;28;20045;-85
2021/12/29 11:04:23;;;;;;;12.32;3.80;;;8.10;99.90;;;;;;5011518;28;20462;-86
2021/12/29 11:06:51;;;;;;;17.38;4.22;;;8.20;99.90;;;;;;5026789;28;20067;-88
2021/12/29 11:09:35;;;;;;;17.38;4.57;;;8.20;99.90;;;;;;5001156;28;20509;-86
2021/12/29 11:12:38;;;;;;;13.20;4.43;;;8.20;99.90;;;;;;5003217;28;20510;-88
2021/12/29 11:15:23;;;;;;;14.38;4.68;;;8.20;99.90;;;;;;4974178;28;20499;-86
2021/12/29 11:18:07;;;;;;;15.65;4.80;;;8.20;99.90;;;;;;4998274;28;20384;-86
2021/12/29 11:20:38;;;;;;;16.33;4.28;;;8.30;99.90;;;;;;5009476;28;20127;-86
2021/12/29 11:23:13;;;;;;;13.10;4.68;;;8.30;99.90;;;;;;4989752;28;20037;-85
2021/12/29 11:25:52;;;;;;;22.50;4.22;;;8.30;99.90;;;;;;5008758;28;20423;-86
2021/12/29 11:28:23;;;;;;;12.35;3.67;;;8.30;99.90;;;;;;4988609;28;20107;-86
2021/12/29 11:30:52;;;;;;;14.95;3.70;;;8.30;99.90;;;;;;5015992;28;20049;-86
2021/12/29 11:33:20;;;;;;;20.60;4.78;;;8.30;99.90;;;;;;4997889;28;20045;-86
2021/12/29 11:35:54;;;;;;;15.25;3.85;;;8.30;99.90;;;;;;5000113;28;20112;-86
2021/12/29 11:38:23;;;;;;;13.65;3.58;;;8.40;99.90;;;;;;4996961;28;20045;-87
2021/12/29 11:41:02;;;;;;;9.18;3.97;;;8.30;99.90;;;;;;4995524;28;20103;-87
2021/12/29 11:43:31;;;;;;;8.52;3.38;;;8.30;99.90;;;;;;4998934;28;20049;-84
2021/12/29 11:45:58;;;;;;;9.70;3.30;;;8.30;99.90;;;;;;5012046;28;20045;-87
2021/12/29 11:48:24;;;;;;;;;;;8.30;99.90;;;;;;5012798;28;20101;-87
2021/12/29 11:50:56;;;;;;;10.55;3.72;;;8.30;99.90;;;;;;5015539;28;19925;-87
2021/12/29 11:53:42;;;;;;;13.13;3.25;;;8.30;99.90;;;;;;4996941;28;20064;-87
2021/12/29 11:56:26;;;;;;;14.80;3.92;;;8.20;99.90;;;;;;5009848;28;20064;-87
2021/12/29 11:59:09;;;;;;;10.43;3.63;;;8.30;99.90;;;;;;5011692;28;20164;-87
2021/12/29 12:01:38;;;;;;;7.55;3.30;;;8.30;99.90;;;;;;4998516;28;20454;-87
2021/12/29 12:04:07;;;;;;;17.17;3.83;;;8.30;99.90;;;;;;4996915;28;20095;-87
2021/12/29 12:06:49;;;;;;;9.40;3.95;;;8.30;99.90;;;;;;5002958;28;20041;-89
2021/12/29 12:09:47;;;;;;;15.00;3.55;;;8.30;99.90;;;;;;5005818;28;20042;-88
2021/12/29 12:12:17;;;;;;;10.70;4.25;;;8.30;99.90;;;;;;5005508;28;20036;-89
2021/12/29 12:15:02;;;;;;;12.82;3.78;;;8.30;99.90;;;;;;5002087;28;20139;-86
2021/12/29 12:17:28;;;;;;;22.75;5.40;;;8.30;99.90;;;;;;4997562;28;20132;-88
2021/12/29 12:20:01;;;;;;;10.03;3.90;;;8.30;99.90;;;;;;5014249;28;20132;-86
2021/12/29 12:22:55;;;;;;;10.93;3.28;;;8.20;99.90;;;;;;4995031;28;20041;-87
2021/12/29 12:25:47;;;;;;;13.02;4.00;;;8.20;99.90;;;;;;4985302;28;20569;-88
2021/12/29 12:28:25;;;;;;;11.70;3.75;;;8.20;99.90;;;;;;5019561;28;21353;-90
2021/12/29 12:31:08;;;;;;;10.80;2.92;;;8.30;99.90;;;;;;5008238;28;20041;-89
2021/12/29 12:33:45;;;;;;;18.20;3.80;;;8.30;99.90;;;;;;4995353;28;20507;-88
2021/12/29 12:36:47;;;;;;;;;;;;;;;;;;;;;
2021/12/29 12:39:24;;;;;;;12.50;3.90;;;8.20;99.90;;;;;;5008913;28;20049;-90
2021/12/29 12:42:10;;;;;;;9.50;3.33;;;8.20;99.90;;;;;;5011374;28;20450;-89
2021/12/29 12:44:38;;;;;;;10.85;3.25;;;8.20;99.90;;;;;;5013074;28;20059;-89
2021/12/29 12:47:23;;;;;;;9.13;3.38;;;8.20;99.90;;;;;;4995789;28;20041;-89
2021/12/29 12:49:53;;;;;;;13.07;3.90;;;8.20;99.90;;;;;;4993606;28;20118;-88
2021/12/29 12:52:44;;;;;;;8.55;4.07;;;8.20;99.90;;;;;;5008194;28;20041;-88
2021/12/29 12:55:11;;;;;;;12.02;3.90;;;8.20;99.90;;;;;;4996397;28;20061;-88
2021/12/29 13:00:48;;;;;;;9.20;3.08;;;8.20;99.90;;;;;;5013466;28;20050;-90
2021/12/29 13:03:23;;;;;;;9.77;3.40;;;8.10;99.90;;;;;;5011027;28;20045;-88
2021/12/29 13:06:12;;;;;;;8.93;3.08;;;8.20;99.90;;;;;;4996603;28;20041;-88
2021/12/29 13:08:40;;;;;;;14.25;3.72;;;8.10;99.90;;;;;;4997031;28;20045;-87
2021/12/29 13:11:10;;;;;;;9.40;3.70;;;8.10;99.90;;;;;;4997167;28;20038;-91